createdAt,value
2023-01-21T00:00:02.926Z,96.02
2023-01-21T00:01:03.069Z,95.60
2023-01-21T00:02:03.811Z,95.92
2023-01-21T00:03:03.925Z,95.70
2023-01-21T00:04:03.661Z,95.70
2023-01-21T00:05:03.705Z,95.50
2023-01-21T00:06:03.727Z,94.97
2023-01-21T00:07:03.761Z,94.87
2023-01-21T00:08:03.110Z,94.76
2023-01-21T00:09:03.260Z,95.29
2023-01-21T00:10:03.243Z,96.06
2023-01-21T00:11:03.251Z,95.86
2023-01-21T00:12:03.952Z,95.86
2023-01-21T00:13:03.340Z,95.64
2023-01-21T00:14:03.905Z,95.64
2023-01-21T00:15:03.983Z,95.64
2023-01-21T00:16:03.416Z,95.43
2023-01-21T00:17:04.255Z,95.54
2023-01-21T00:18:04.277Z,95.23
2023-01-21T00:19:03.581Z,95.01
2023-01-21T00:20:04.022Z,94.91
2023-01-21T00:21:03.859Z,95.23
2023-01-21T00:22:04.586Z,95.06
2023-01-21T00:23:03.931Z,95.17
2023-01-21T00:24:04.135Z,95.62
2023-01-21T00:25:04.214Z,96.89
2023-01-21T00:26:04.430Z,97.09
2023-01-21T00:27:03.537Z,96.89
2023-01-21T00:28:03.917Z,96.89
2023-01-21T00:29:03.947Z,96.99
2023-01-21T00:30:03.907Z,97.20
2023-01-21T00:31:03.964Z,97.30
2023-01-21T00:32:03.048Z,97.09
2023-01-21T00:33:03.661Z,97.09
2023-01-21T00:34:03.714Z,96.78
2023-01-21T00:35:03.826Z,96.89
2023-01-21T00:36:03.264Z,96.99
2023-01-21T00:37:03.679Z,97.20
2023-01-21T00:38:03.739Z,97.56
2023-01-21T00:39:03.781Z,97.56
2023-01-21T00:40:03.771Z,98.19
2023-01-21T00:41:03.268Z,98.13
2023-01-21T00:42:03.459Z,98.44
2023-01-21T00:43:03.649Z,98.50
2023-01-21T00:44:03.716Z,98.50
2023-01-21T00:45:03.603Z,98.39
2023-01-21T00:46:03.880Z,97.87
2023-01-21T00:47:03.187Z,97.45
2023-01-21T00:48:03.244Z,96.83
2023-01-21T00:49:02.958Z,96.61
2023-01-21T00:50:03.475Z,96.83
2023-01-21T00:51:02.948Z,96.83
2023-01-21T00:52:03.151Z,96.72
2023-01-21T00:53:03.133Z,96.19
2023-01-21T00:54:03.152Z,96.09
2023-01-21T00:55:03.049Z,96.61
2023-01-21T00:56:03.320Z,96.72
2023-01-21T00:57:03.700Z,97.35
2023-01-21T00:58:03.515Z,97.92
2023-01-21T00:59:03.570Z,97.66
2023-01-21T01:00:03.566Z,97.03
2023-01-21T01:01:03.714Z,96.83
2023-01-21T01:02:05.191Z,96.77
2023-01-21T01:03:05.216Z,97.29
2023-01-21T01:04:04.830Z,97.96
2023-01-21T01:05:04.852Z,98.49
2023-01-21T01:06:04.729Z,98.23
2023-01-21T01:07:04.808Z,98.02
2023-01-21T01:08:04.889Z,97.50
2023-01-21T01:09:05.006Z,97.29
2023-01-21T01:10:05.160Z,97.08
2023-01-21T01:11:04.855Z,96.87
2023-01-21T01:12:04.010Z,96.77
2023-01-21T01:13:04.003Z,96.13
2023-01-21T01:14:04.122Z,96.13
2023-01-21T01:15:04.144Z,95.82
2023-01-21T01:16:04.501Z,95.78
2023-01-21T01:17:05.037Z,96.34
2023-01-21T01:18:04.550Z,96.34
2023-01-21T01:19:04.657Z,96.45
2023-01-21T01:20:04.513Z,96.34
2023-01-21T01:21:04.786Z,96.03
2023-01-21T01:22:03.912Z,96.13
2023-01-21T01:23:04.044Z,95.82
2023-01-21T01:24:03.986Z,95.72
2023-01-21T01:25:04.032Z,95.61
2023-01-21T01:26:04.058Z,96.03
2023-01-21T01:27:04.075Z,95.92
2023-01-21T01:28:03.901Z,95.72
2023-01-21T01:29:04.196Z,95.50
2023-01-21T01:30:04.405Z,95.40
2023-01-21T01:31:04.727Z,95.29
2023-01-21T01:32:04.290Z,95.29
2023-01-21T01:33:04.352Z,95.82
2023-01-21T01:34:03.903Z,95.97
2023-01-21T01:35:04.171Z,96.07
2023-01-21T01:36:04.021Z,95.97
2023-01-21T01:37:03.881Z,95.86
2023-01-21T01:38:03.748Z,95.97
2023-01-21T01:39:03.954Z,95.65
2023-01-21T01:40:04.020Z,96.07
2023-01-21T01:41:04.034Z,96.49
2023-01-21T01:42:04.432Z,96.59
2023-01-21T01:43:04.094Z,96.81
2023-01-21T01:44:04.380Z,97.02
2023-01-21T01:45:04.411Z,96.91
2023-01-21T01:46:04.008Z,97.12
2023-01-21T01:47:04.089Z,96.91
2023-01-21T01:48:04.006Z,96.91
2023-01-21T01:49:04.027Z,96.70
2023-01-21T01:50:04.065Z,95.97
2023-01-21T01:51:04.128Z,96.28
2023-01-21T01:52:03.963Z,96.07
2023-01-21T01:53:04.159Z,95.65
2023-01-21T01:54:04.192Z,95.76
2023-01-21T01:55:04.217Z,96.18
2023-01-21T01:56:04.222Z,96.07
2023-01-21T01:57:04.341Z,95.86
2023-01-21T01:58:04.502Z,95.97
2023-01-21T01:59:04.173Z,95.97
2023-01-21T02:00:04.164Z,95.76
2023-01-21T02:01:04.319Z,95.90
2023-01-21T02:02:04.266Z,96.43
2023-01-21T02:03:04.221Z,96.64
2023-01-21T02:04:04.210Z,96.75
2023-01-21T02:05:03.578Z,96.95
2023-01-21T02:06:04.108Z,97.06
2023-01-21T02:07:04.489Z,96.95
2023-01-21T02:08:04.076Z,96.85
2023-01-21T02:09:04.289Z,97.17
2023-01-21T02:10:04.148Z,96.85
2023-01-21T02:11:04.199Z,96.53
2023-01-21T02:12:04.196Z,96.22
2023-01-21T02:13:04.216Z,96.22
2023-01-21T02:14:04.118Z,96.22
2023-01-21T02:15:04.324Z,96.12
2023-01-21T02:16:04.416Z,95.80
2023-01-21T02:17:04.498Z,95.59
2023-01-21T02:18:04.450Z,95.48
2023-01-21T02:19:04.501Z,95.48
2023-01-21T02:20:04.525Z,95.90
2023-01-21T02:21:04.535Z,96.33
2023-01-21T02:22:04.121Z,96.89
2023-01-21T02:23:04.168Z,97.31
2023-01-21T02:24:04.076Z,97.31
2023-01-21T02:25:04.036Z,97.42
2023-01-21T02:26:04.035Z,97.42
2023-01-21T02:27:04.784Z,96.69
2023-01-21T02:28:04.170Z,97.21
2023-01-21T02:29:04.532Z,96.89
2023-01-21T02:30:04.537Z,96.37
2023-01-21T02:31:04.790Z,96.05
2023-01-21T02:32:03.666Z,95.84
2023-01-21T02:33:03.392Z,95.53
2023-01-21T02:34:03.436Z,95.74
2023-01-21T02:35:03.797Z,95.74
2023-01-21T02:36:03.780Z,95.42
2023-01-21T02:37:03.625Z,95.10
2023-01-21T02:38:03.720Z,94.79
2023-01-21T02:39:03.659Z,94.69
2023-01-21T02:40:03.486Z,94.90
2023-01-21T02:41:03.757Z,94.79
2023-01-21T02:42:04.064Z,95.10
2023-01-21T02:43:03.382Z,95.10
2023-01-21T02:44:03.663Z,95.10
2023-01-21T02:45:03.680Z,94.90
2023-01-21T02:46:03.606Z,95.32
2023-01-21T02:47:03.949Z,95.32
2023-01-21T02:48:04.391Z,95.57
2023-01-21T02:49:04.557Z,95.78
2023-01-21T02:50:03.952Z,95.89
2023-01-21T02:51:04.222Z,95.99
2023-01-21T02:52:03.487Z,96.10
2023-01-21T02:53:03.852Z,96.25
2023-01-21T02:54:03.965Z,96.88
2023-01-21T02:55:03.593Z,97.05
2023-01-21T02:56:04.020Z,96.98
2023-01-21T02:57:04.004Z,97.09
2023-01-21T02:58:03.684Z,97.09
2023-01-21T02:59:03.580Z,96.98
2023-01-21T03:00:03.705Z,96.67
2023-01-21T03:01:04.046Z,96.62
2023-01-21T03:02:03.953Z,96.14
2023-01-21T03:03:04.250Z,95.89
2023-01-21T03:04:03.664Z,95.89
2023-01-21T03:05:03.926Z,95.47
2023-01-21T03:06:04.289Z,95.30
2023-01-21T03:07:04.463Z,95.26
2023-01-21T03:08:03.983Z,95.47
2023-01-21T03:09:04.062Z,95.26
2023-01-21T03:10:04.022Z,95.04
2023-01-21T03:11:04.193Z,94.94
2023-01-21T03:12:03.242Z,95.09
2023-01-21T03:13:03.240Z,95.36
2023-01-21T03:14:03.201Z,95.20
2023-01-21T03:15:03.547Z,95.09
2023-01-21T03:16:03.620Z,95.66
2023-01-21T03:17:03.548Z,96.14
2023-01-21T03:18:03.254Z,96.08
2023-01-21T03:19:03.284Z,96.08
2023-01-21T03:20:03.313Z,95.97
2023-01-21T03:21:03.160Z,95.76
2023-01-21T03:22:03.483Z,95.76
2023-01-21T03:23:03.542Z,95.55
2023-01-21T03:24:03.553Z,95.30
2023-01-21T03:25:03.373Z,94.88
2023-01-21T03:26:03.952Z,94.78
2023-01-21T03:27:03.540Z,94.92
2023-01-21T03:28:03.779Z,94.71
2023-01-21T03:29:03.746Z,94.82
2023-01-21T03:30:03.759Z,94.60
2023-01-21T03:31:03.786Z,94.60
2023-01-21T03:32:03.346Z,94.60
2023-01-21T03:33:03.392Z,94.60
2023-01-21T03:34:03.452Z,94.40
2023-01-21T03:35:03.035Z,94.29
2023-01-21T03:36:03.077Z,94.18
2023-01-21T03:37:03.448Z,94.18
2023-01-21T03:38:03.590Z,94.50
2023-01-21T03:39:03.260Z,95.24
2023-01-21T03:40:03.357Z,95.45
2023-01-21T03:41:03.204Z,95.55
2023-01-21T03:42:03.893Z,95.60
2023-01-21T03:43:03.915Z,95.81
2023-01-21T03:44:03.511Z,96.55
2023-01-21T03:45:03.688Z,96.75
2023-01-21T03:46:03.792Z,96.97
2023-01-21T03:47:04.021Z,97.17
2023-01-21T03:48:04.076Z,96.86
2023-01-21T03:49:03.449Z,96.97
2023-01-21T03:50:03.728Z,97.28
2023-01-21T03:51:03.826Z,97.60
2023-01-21T03:52:03.594Z,97.60
2023-01-21T03:53:03.582Z,97.17
2023-01-21T03:54:03.572Z,97.28
2023-01-21T03:55:02.981Z,96.61
2023-01-21T03:56:03.275Z,96.23
2023-01-21T03:57:03.386Z,96.33
2023-01-21T03:58:03.310Z,95.91
2023-01-21T03:59:03.617Z,95.76
2023-01-21T04:00:03.650Z,95.49
2023-01-21T04:01:03.768Z,95.49
2023-01-21T04:02:05.247Z,95.81
2023-01-21T04:03:05.093Z,96.55
2023-01-21T04:04:05.436Z,97.07
2023-01-21T04:05:04.800Z,96.86
2023-01-21T04:06:05.081Z,95.81
2023-01-21T04:07:04.831Z,95.18
2023-01-21T04:08:04.653Z,95.60
2023-01-21T04:09:04.621Z,95.60
2023-01-21T04:10:04.740Z,95.85
2023-01-21T04:11:04.652Z,96.37
2023-01-21T04:12:05.303Z,96.91
2023-01-21T04:13:05.287Z,97.22
2023-01-21T04:14:05.248Z,97.43
2023-01-21T04:15:05.701Z,96.91
2023-01-21T04:16:05.263Z,96.48
2023-01-21T04:17:04.260Z,96.06
2023-01-21T04:18:04.440Z,95.95
2023-01-21T04:19:04.448Z,95.85
2023-01-21T04:20:04.396Z,95.85
2023-01-21T04:21:04.439Z,95.39
2023-01-21T04:22:04.427Z,94.76
2023-01-21T04:23:04.771Z,94.59
2023-01-21T04:24:04.746Z,94.59
2023-01-21T04:25:04.573Z,94.90
2023-01-21T04:26:04.437Z,95.32
2023-01-21T04:27:03.910Z,95.43
2023-01-21T04:28:03.894Z,95.57
2023-01-21T04:29:04.157Z,95.89
2023-01-21T04:30:04.091Z,96.31
2023-01-21T04:31:04.152Z,96.53
2023-01-21T04:32:04.700Z,96.63
2023-01-21T04:33:04.319Z,96.48
2023-01-21T04:34:04.749Z,95.75
2023-01-21T04:35:04.123Z,95.43
2023-01-21T04:36:04.243Z,95.22
2023-01-21T04:37:04.199Z,95.11
2023-01-21T04:38:04.501Z,95.37
2023-01-21T04:39:04.360Z,95.75
2023-01-21T04:40:04.397Z,96.00
2023-01-21T04:41:04.770Z,96.42
2023-01-21T04:42:03.985Z,96.11
2023-01-21T04:43:04.081Z,96.17
2023-01-21T04:44:04.259Z,95.53
2023-01-21T04:45:03.751Z,95.01
2023-01-21T04:46:03.920Z,95.26
2023-01-21T04:47:04.005Z,95.01
2023-01-21T04:48:04.333Z,95.01
2023-01-21T04:49:04.339Z,94.73
2023-01-21T04:50:04.326Z,94.53
2023-01-21T04:51:03.961Z,94.63
2023-01-21T04:52:04.165Z,94.95
2023-01-21T04:53:04.115Z,95.37
2023-01-21T04:54:04.404Z,95.57
2023-01-21T04:55:04.350Z,95.79
2023-01-21T04:56:04.054Z,95.62
2023-01-21T04:57:04.474Z,95.94
2023-01-21T04:58:04.221Z,96.36
2023-01-21T04:59:04.294Z,96.67
2023-01-21T05:00:04.329Z,96.25
2023-01-21T05:01:04.155Z,95.73
2023-01-21T05:02:04.089Z,95.20
2023-01-21T05:03:04.015Z,94.89
2023-01-21T05:04:04.531Z,94.67
2023-01-21T05:05:04.443Z,94.99
2023-01-21T05:06:04.364Z,94.99
2023-01-21T05:07:04.385Z,94.57
2023-01-21T05:08:04.915Z,94.99
2023-01-21T05:09:04.894Z,94.67
2023-01-21T05:10:04.705Z,94.25
2023-01-21T05:11:04.702Z,93.73
2023-01-21T05:12:03.733Z,93.62
2023-01-21T05:13:04.071Z,94.15
2023-01-21T05:14:04.091Z,94.67
2023-01-21T05:15:04.093Z,94.89
2023-01-21T05:16:04.175Z,94.99
2023-01-21T05:17:04.376Z,94.78
2023-01-21T05:18:04.641Z,94.46
2023-01-21T05:19:03.967Z,94.04
2023-01-21T05:20:04.610Z,93.93
2023-01-21T05:21:04.533Z,94.04
2023-01-21T05:22:03.600Z,94.29
2023-01-21T05:23:03.573Z,94.29
2023-01-21T05:24:03.576Z,93.98
2023-01-21T05:25:03.388Z,93.66
2023-01-21T05:26:03.693Z,93.55
2023-01-21T05:27:03.726Z,93.55
2023-01-21T05:28:03.759Z,93.87
2023-01-21T05:29:03.473Z,93.98
2023-01-21T05:30:03.622Z,93.87
2023-01-21T05:31:03.802Z,94.40
2023-01-21T05:32:03.750Z,95.18
2023-01-21T05:33:03.829Z,95.50
2023-01-21T05:34:03.869Z,95.29
2023-01-21T05:35:03.792Z,94.65
2023-01-21T05:36:03.854Z,94.40
2023-01-21T05:37:03.842Z,94.19
2023-01-21T05:38:03.653Z,93.87
2023-01-21T05:39:03.886Z,94.12
2023-01-21T05:40:03.575Z,94.34
2023-01-21T05:41:03.874Z,94.23
2023-01-21T05:42:03.875Z,94.44
2023-01-21T05:43:03.904Z,94.23
2023-01-21T05:44:03.887Z,94.12
2023-01-21T05:45:04.245Z,93.80
2023-01-21T05:46:03.620Z,93.91
2023-01-21T05:47:03.878Z,94.23
2023-01-21T05:48:03.727Z,94.34
2023-01-21T05:49:03.749Z,94.23
2023-01-21T05:50:03.965Z,94.59
2023-01-21T05:51:04.189Z,94.70
2023-01-21T05:52:04.378Z,94.70
2023-01-21T05:53:04.382Z,94.90
2023-01-21T05:54:04.312Z,94.76
2023-01-21T05:55:04.069Z,94.44
2023-01-21T05:56:04.592Z,94.23
2023-01-21T05:57:03.656Z,94.23
2023-01-21T05:58:03.633Z,93.96
2023-01-21T05:59:03.663Z,93.91
2023-01-21T06:00:03.648Z,93.91
2023-01-21T06:01:03.424Z,93.91
2023-01-21T06:02:04.351Z,94.06
2023-01-21T06:03:04.312Z,94.17
2023-01-21T06:04:04.368Z,94.38
2023-01-21T06:05:04.446Z,94.59
2023-01-21T06:06:04.487Z,94.70
2023-01-21T06:07:04.514Z,94.80
2023-01-21T06:08:04.599Z,94.90
2023-01-21T06:09:04.345Z,95.12
2023-01-21T06:10:04.604Z,95.12
2023-01-21T06:11:04.357Z,95.33
2023-01-21T06:12:04.166Z,95.12
2023-01-21T06:13:04.226Z,95.43
2023-01-21T06:14:04.524Z,95.22
2023-01-21T06:15:04.414Z,95.06
2023-01-21T06:16:04.094Z,95.26
2023-01-21T06:17:04.214Z,95.12
2023-01-21T06:18:04.276Z,94.95
2023-01-21T06:19:03.820Z,95.06
2023-01-21T06:20:04.121Z,95.37
2023-01-21T06:21:04.344Z,95.37
2023-01-21T06:22:04.357Z,95.16
2023-01-21T06:23:04.117Z,95.48
2023-01-21T06:24:04.133Z,95.79
2023-01-21T06:25:04.583Z,96.00
2023-01-21T06:26:04.610Z,95.54
2023-01-21T06:27:04.127Z,95.33
2023-01-21T06:28:04.550Z,95.75
2023-01-21T06:29:03.587Z,95.54
2023-01-21T06:30:03.553Z,95.64
2023-01-21T06:31:03.889Z,95.64
2023-01-21T06:32:04.414Z,95.22
2023-01-21T06:33:03.536Z,94.59
2023-01-21T06:34:03.682Z,94.38
2023-01-21T06:35:03.998Z,94.42
2023-01-21T06:36:04.034Z,94.64
2023-01-21T06:37:04.119Z,94.42
2023-01-21T06:38:04.191Z,94.00
2023-01-21T06:39:04.233Z,94.10
2023-01-21T06:40:04.115Z,94.84
2023-01-21T06:41:04.142Z,95.48
2023-01-21T06:42:04.209Z,95.06
2023-01-21T06:43:04.325Z,94.32
2023-01-21T06:44:04.345Z,93.89
2023-01-21T06:45:04.404Z,93.68
2023-01-21T06:46:04.441Z,93.47
2023-01-21T06:47:04.570Z,93.37
2023-01-21T06:48:04.647Z,93.26
2023-01-21T06:49:04.163Z,93.15
2023-01-21T06:50:04.586Z,93.15
2023-01-21T06:51:04.747Z,93.26
2023-01-21T06:52:04.523Z,93.47
2023-01-21T06:53:04.597Z,93.57
2023-01-21T06:54:04.592Z,93.79
2023-01-21T06:55:04.601Z,93.89
2023-01-21T06:56:04.852Z,93.89
2023-01-21T06:57:03.913Z,93.89
2023-01-21T06:58:03.600Z,93.79
2023-01-21T06:59:03.886Z,93.57
2023-01-21T07:00:03.836Z,93.47
2023-01-21T07:01:03.619Z,93.47
2023-01-21T07:02:04.327Z,93.26
2023-01-21T07:03:04.371Z,93.41
2023-01-21T07:04:04.391Z,93.51
2023-01-21T07:05:04.557Z,93.62
2023-01-21T07:06:03.998Z,93.62
2023-01-21T07:07:03.601Z,93.73
2023-01-21T07:08:03.851Z,93.83
2023-01-21T07:09:03.621Z,93.62
2023-01-21T07:10:03.838Z,93.62
2023-01-21T07:11:03.771Z,93.51
2023-01-21T07:12:03.606Z,93.62
2023-01-21T07:13:03.661Z,93.62
2023-01-21T07:14:03.673Z,93.51
2023-01-21T07:15:03.365Z,93.83
2023-01-21T07:16:06.015Z,93.73
2023-01-21T07:17:03.809Z,93.62
2023-01-21T07:18:03.918Z,93.51
2023-01-21T07:19:04.040Z,93.83
2023-01-21T07:20:04.137Z,94.57
2023-01-21T07:21:03.551Z,94.57
2023-01-21T07:22:03.995Z,93.93
2023-01-21T07:23:04.278Z,93.51
2023-01-21T07:24:04.333Z,93.41
2023-01-21T07:25:03.765Z,93.73
2023-01-21T07:26:04.183Z,94.46
2023-01-21T07:27:03.989Z,94.36
2023-01-21T07:28:03.678Z,94.46
2023-01-21T07:29:04.000Z,94.15
2023-01-21T07:30:03.434Z,94.15
2023-01-21T07:31:03.915Z,94.46
2023-01-21T07:32:03.776Z,94.89
2023-01-21T07:33:03.953Z,95.20
2023-01-21T07:34:03.879Z,95.52
2023-01-21T07:35:04.040Z,95.67
2023-01-21T07:36:03.497Z,95.52
2023-01-21T07:37:02.731Z,95.52
2023-01-21T07:38:03.142Z,95.56
2023-01-21T07:39:03.193Z,95.73
2023-01-21T07:40:02.884Z,95.88
2023-01-21T07:41:03.097Z,95.94
2023-01-21T07:42:02.834Z,96.20
2023-01-21T07:43:03.234Z,96.30
2023-01-21T07:44:03.347Z,96.51
2023-01-21T07:45:03.383Z,96.73
2023-01-21T07:46:03.073Z,96.94
2023-01-21T07:47:03.197Z,97.15
2023-01-21T07:48:03.667Z,97.15
2023-01-21T07:49:03.815Z,97.25
2023-01-21T07:50:03.816Z,96.94
2023-01-21T07:51:03.306Z,96.94
2023-01-21T07:52:03.474Z,96.94
2023-01-21T07:53:03.857Z,97.25
2023-01-21T07:54:03.911Z,96.94
2023-01-21T07:55:03.704Z,96.62
2023-01-21T07:56:03.660Z,96.30
2023-01-21T07:57:03.507Z,96.20
2023-01-21T07:58:03.805Z,95.98
2023-01-21T07:59:03.956Z,95.84
2023-01-21T08:00:03.581Z,95.42
2023-01-21T08:01:03.396Z,95.25
2023-01-21T08:02:03.552Z,95.56
2023-01-21T08:03:03.154Z,95.78
2023-01-21T08:04:03.160Z,96.20
2023-01-21T08:05:03.269Z,96.20
2023-01-21T08:06:03.369Z,95.88
2023-01-21T08:07:02.612Z,95.46
2023-01-21T08:08:02.921Z,95.56
2023-01-21T08:09:02.552Z,95.78
2023-01-21T08:10:02.921Z,96.09
2023-01-21T08:11:02.434Z,96.09
2023-01-21T08:12:02.709Z,95.84
2023-01-21T08:13:02.887Z,95.62
2023-01-21T08:14:03.002Z,95.42
2023-01-21T08:15:03.151Z,95.10
2023-01-21T08:16:02.698Z,95.20
2023-01-21T08:17:02.978Z,95.20
2023-01-21T08:18:03.296Z,95.52
2023-01-21T08:19:03.185Z,94.99
2023-01-21T08:20:03.352Z,94.89
2023-01-21T08:21:03.460Z,95.10
2023-01-21T08:22:02.921Z,95.52
2023-01-21T08:23:03.229Z,96.05
2023-01-21T08:24:02.984Z,96.37
2023-01-21T08:25:03.176Z,96.15
2023-01-21T08:26:03.341Z,96.37
2023-01-21T08:27:02.441Z,96.37
2023-01-21T08:28:02.617Z,96.26
2023-01-21T08:29:02.787Z,96.00
2023-01-21T08:30:02.220Z,96.11
2023-01-21T08:31:02.890Z,96.11
2023-01-21T08:32:02.629Z,95.90
2023-01-21T08:33:03.222Z,95.48
2023-01-21T08:34:02.865Z,94.95
2023-01-21T08:35:03.003Z,94.84
2023-01-21T08:36:02.700Z,94.84
2023-01-21T08:37:02.888Z,95.16
2023-01-21T08:38:03.031Z,94.95
2023-01-21T08:39:02.865Z,94.59
2023-01-21T08:40:02.946Z,94.59
2023-01-21T08:41:03.144Z,94.74
2023-01-21T08:42:02.354Z,95.12
2023-01-21T08:43:02.343Z,95.22
2023-01-21T08:44:02.608Z,95.12
2023-01-21T08:45:02.762Z,94.90
2023-01-21T08:46:02.219Z,94.80
2023-01-21T08:47:03.159Z,94.59
2023-01-21T08:48:03.395Z,95.01
2023-01-21T08:49:02.836Z,95.54
2023-01-21T08:50:03.129Z,95.12
2023-01-21T08:51:02.875Z,94.70
2023-01-21T08:52:03.054Z,94.44
2023-01-21T08:53:02.777Z,94.44
2023-01-21T08:54:02.958Z,94.23
2023-01-21T08:55:02.443Z,94.44
2023-01-21T08:56:02.447Z,94.76
2023-01-21T08:57:02.394Z,95.18
2023-01-21T08:58:02.578Z,95.18
2023-01-21T08:59:02.489Z,94.76
2023-01-21T09:00:02.442Z,94.44
2023-01-21T09:01:02.097Z,94.44
2023-01-21T09:02:04.552Z,94.40
2023-01-21T09:03:04.795Z,94.29
2023-01-21T09:04:04.827Z,94.19
2023-01-21T09:05:04.346Z,94.19
2023-01-21T09:06:04.532Z,94.40
2023-01-21T09:07:04.174Z,94.61
2023-01-21T09:08:03.995Z,94.93
2023-01-21T09:09:04.292Z,95.24
2023-01-21T09:10:04.126Z,95.35
2023-01-21T09:11:04.334Z,95.24
2023-01-21T09:12:04.424Z,95.35
2023-01-21T09:13:04.227Z,95.45
2023-01-21T09:14:04.430Z,96.09
2023-01-21T09:15:04.566Z,96.41
2023-01-21T09:16:04.105Z,96.51
2023-01-21T09:17:04.376Z,96.83
2023-01-21T09:18:04.088Z,96.99
2023-01-21T09:19:04.293Z,97.09
2023-01-21T09:20:04.667Z,96.78
2023-01-21T09:21:04.081Z,96.99
2023-01-21T09:22:03.967Z,96.67
2023-01-21T09:23:04.123Z,96.42
2023-01-21T09:24:03.877Z,96.21
2023-01-21T09:25:04.027Z,96.11
2023-01-21T09:26:03.678Z,96.42
2023-01-21T09:27:04.218Z,97.05
2023-01-21T09:28:04.014Z,97.43
2023-01-21T09:29:04.177Z,97.64
2023-01-21T09:30:04.098Z,97.53
2023-01-21T09:31:04.449Z,97.64
2023-01-21T09:32:04.563Z,97.75
2023-01-21T09:33:04.769Z,97.96
2023-01-21T09:34:04.127Z,98.23
2023-01-21T09:35:04.196Z,98.33
2023-01-21T09:36:04.411Z,98.08
2023-01-21T09:37:03.974Z,98.29
2023-01-21T09:38:04.176Z,98.92
2023-01-21T09:39:03.688Z,99.76
2023-01-21T09:40:03.709Z,99.99
2023-01-21T09:41:04.014Z,99.99
2023-01-21T09:42:04.204Z,99.99
2023-01-21T09:43:04.012Z,99.99
2023-01-21T09:44:03.891Z,99.99
2023-01-21T09:45:04.080Z,99.99
2023-01-21T09:46:04.314Z,99.99
2023-01-21T09:47:04.693Z,99.99
2023-01-21T09:48:04.674Z,99.99
2023-01-21T09:49:04.135Z,99.99
2023-01-21T09:50:04.610Z,99.99
2023-01-21T09:51:04.183Z,99.99
2023-01-21T09:52:03.606Z,99.99
2023-01-21T09:53:03.439Z,99.99
2023-01-21T09:54:03.317Z,99.99
2023-01-21T09:55:03.567Z,99.99
2023-01-21T09:56:03.256Z,99.99
2023-01-21T09:57:04.202Z,99.99
2023-01-21T09:58:04.039Z,99.99
2023-01-21T09:59:04.207Z,99.99
2023-01-21T10:00:03.724Z,99.99
2023-01-21T10:01:04.090Z,99.99
2023-01-21T10:02:04.862Z,99.99
2023-01-21T10:03:04.249Z,99.99
2023-01-21T10:04:04.443Z,99.99
2023-01-21T10:05:03.911Z,99.99
2023-01-21T10:06:04.335Z,99.99
2023-01-21T10:07:03.537Z,99.99
2023-01-21T10:08:03.032Z,99.99
2023-01-21T10:09:03.430Z,99.99
2023-01-21T10:10:03.140Z,99.99
2023-01-21T10:11:03.258Z,99.99
2023-01-21T10:12:04.044Z,99.92
2023-01-21T10:13:04.075Z,99.71
2023-01-21T10:14:03.750Z,99.40
2023-01-21T10:15:04.111Z,99.04
2023-01-21T10:16:03.531Z,98.62
2023-01-21T10:17:03.672Z,98.21
2023-01-21T10:18:03.750Z,97.78
2023-01-21T10:19:03.283Z,97.74
2023-01-21T10:20:03.362Z,97.53
2023-01-21T10:21:03.665Z,97.32
2023-01-21T10:22:03.770Z,97.01
2023-01-21T10:23:03.408Z,96.91
2023-01-21T10:24:03.733Z,96.49
2023-01-21T10:25:03.473Z,95.55
2023-01-21T10:26:03.636Z,96.01
2023-01-21T10:27:03.765Z,96.91
2023-01-21T10:28:03.613Z,96.70
2023-01-21T10:29:03.820Z,95.86
2023-01-21T10:30:03.337Z,94.61
2023-01-21T10:31:03.358Z,94.40
2023-01-21T10:32:03.831Z,94.61
2023-01-21T10:33:03.589Z,95.23
2023-01-21T10:34:03.290Z,95.03
2023-01-21T10:35:03.987Z,94.46
2023-01-21T10:36:03.472Z,94.15
2023-01-21T10:37:03.868Z,93.94
2023-01-21T10:38:03.639Z,94.57
2023-01-21T10:39:03.293Z,94.67
2023-01-21T10:40:03.468Z,94.57
2023-01-21T10:41:03.409Z,94.67
2023-01-21T10:42:03.345Z,94.88
2023-01-21T10:43:03.429Z,95.04
2023-01-21T10:44:02.936Z,95.04
2023-01-21T10:45:03.203Z,95.25
2023-01-21T10:46:03.470Z,94.42
2023-01-21T10:47:03.805Z,94.10
2023-01-21T10:48:03.933Z,94.31
2023-01-21T10:49:03.537Z,94.31
2023-01-21T10:50:03.635Z,94.21
2023-01-21T10:51:03.491Z,93.90
2023-01-21T10:52:02.934Z,92.85
2023-01-21T10:53:03.605Z,93.12
2023-01-21T10:54:03.060Z,93.33
2023-01-21T10:55:03.577Z,93.44
2023-01-21T10:56:03.392Z,93.85
2023-01-21T10:57:03.138Z,94.27
2023-01-21T10:58:03.523Z,94.06
2023-01-21T10:59:03.492Z,93.85
2023-01-21T11:00:03.602Z,93.65
2023-01-21T11:01:03.853Z,93.75
2023-01-21T11:02:04.701Z,93.54
2023-01-21T11:03:04.689Z,93.65
2023-01-21T11:04:04.352Z,93.44
2023-01-21T11:05:04.886Z,93.96
2023-01-21T11:06:04.515Z,93.96
2023-01-21T11:07:04.815Z,94.06
2023-01-21T11:08:05.245Z,94.37
2023-01-21T11:09:05.434Z,94.48
2023-01-21T11:10:05.360Z,94.23
2023-01-21T11:11:05.304Z,94.12
2023-01-21T11:12:04.442Z,93.75
2023-01-21T11:13:03.835Z,93.75
2023-01-21T11:14:03.759Z,94.12
2023-01-21T11:15:04.026Z,94.33
2023-01-21T11:16:03.947Z,93.23
2023-01-21T11:17:04.052Z,93.44
2023-01-21T11:18:04.637Z,93.71
2023-01-21T11:19:04.686Z,93.91
2023-01-21T11:20:04.099Z,94.02
2023-01-21T11:21:03.996Z,94.23
2023-01-21T11:22:04.963Z,93.91
2023-01-21T11:23:04.995Z,93.91
2023-01-21T11:24:04.795Z,93.50
2023-01-21T11:25:04.638Z,93.29
2023-01-21T11:26:05.211Z,92.97
2023-01-21T11:27:04.018Z,93.40
2023-01-21T11:28:04.560Z,93.71
2023-01-21T11:29:06.773Z,93.91
2023-01-21T11:30:08.070Z,93.81
2023-01-21T11:31:04.119Z,93.60
2023-01-21T11:32:04.352Z,93.40
2023-01-21T11:33:04.670Z,93.60
2023-01-21T11:34:04.163Z,93.71
2023-01-21T11:35:04.705Z,93.50
2023-01-21T11:36:04.745Z,93.40
2023-01-21T11:37:04.267Z,93.60
2023-01-21T11:38:04.615Z,93.40
2023-01-21T11:39:04.779Z,93.18
2023-01-21T11:40:04.387Z,93.60
2023-01-21T11:41:04.753Z,93.91
2023-01-21T11:42:04.542Z,93.77
2023-01-21T11:43:04.670Z,93.77
2023-01-21T11:44:04.779Z,92.93
2023-01-21T11:45:04.335Z,92.72
2023-01-21T11:46:04.859Z,92.56
2023-01-21T11:47:03.789Z,93.40
2023-01-21T11:48:04.185Z,93.40
2023-01-21T11:49:04.298Z,93.66
2023-01-21T11:50:04.077Z,93.46
2023-01-21T11:51:04.205Z,93.35
2023-01-21T11:52:04.116Z,93.66
2023-01-21T11:53:04.434Z,93.87
2023-01-21T11:54:04.402Z,93.87
2023-01-21T11:55:03.951Z,93.77
2023-01-21T11:56:03.992Z,93.46
2023-01-21T11:57:04.193Z,93.46
2023-01-21T11:58:04.660Z,93.56
2023-01-21T11:59:04.160Z,93.56
2023-01-21T12:00:04.331Z,93.77
2023-01-21T12:01:04.378Z,93.81
2023-01-21T12:02:04.413Z,94.12
2023-01-21T12:03:04.534Z,94.23
2023-01-21T12:04:04.337Z,94.29
2023-01-21T12:05:04.542Z,94.18
2023-01-21T12:06:04.716Z,94.39
2023-01-21T12:07:03.947Z,93.98
2023-01-21T12:08:04.396Z,94.18
2023-01-21T12:09:04.391Z,94.29
2023-01-21T12:10:03.846Z,93.98
2023-01-21T12:11:03.760Z,93.77
2023-01-21T12:12:04.239Z,94.14
2023-01-21T12:13:04.462Z,94.24
2023-01-21T12:14:04.573Z,93.73
2023-01-21T12:15:04.490Z,92.37
2023-01-21T12:16:04.732Z,91.22
2023-01-21T12:17:03.684Z,91.43
2023-01-21T12:18:04.169Z,92.12
2023-01-21T12:19:03.543Z,92.54
2023-01-21T12:20:03.419Z,92.85
2023-01-21T12:21:03.843Z,91.71
2023-01-21T12:22:04.091Z,91.28
2023-01-21T12:23:04.418Z,91.39
2023-01-21T12:24:03.846Z,92.22
2023-01-21T12:25:04.368Z,92.64
2023-01-21T12:26:04.119Z,92.12
2023-01-21T12:27:04.082Z,91.81
2023-01-21T12:28:03.568Z,92.02
2023-01-21T12:30:03.668Z,92.54
2023-01-21T12:31:03.712Z,92.64
2023-01-21T12:32:04.108Z,92.22
2023-01-21T12:33:04.220Z,92.64
2023-01-21T12:34:04.376Z,93.16
2023-01-21T12:35:03.997Z,93.27
2023-01-21T12:36:04.194Z,92.74
2023-01-21T12:37:04.433Z,92.54
2023-01-21T12:38:04.347Z,92.64
2023-01-21T12:39:04.296Z,92.22
2023-01-21T12:40:04.421Z,91.91
2023-01-21T12:41:04.399Z,91.75
2023-01-21T12:42:04.474Z,92.37
2023-01-21T12:43:04.532Z,92.43
2023-01-21T12:44:04.730Z,92.85
2023-01-21T12:45:04.400Z,93.05
2023-01-21T12:46:04.516Z,93.16
2023-01-21T12:47:04.010Z,92.95
2023-01-21T12:48:03.948Z,92.64
2023-01-21T12:49:03.804Z,93.27
2023-01-21T12:50:04.219Z,93.27
2023-01-21T12:51:03.647Z,93.33
2023-01-21T12:52:03.689Z,92.70
2023-01-21T12:53:03.618Z,92.80